createdAt,value
2023-03-28T00:00:41.211Z,4.78
2023-03-28T00:03:18.258Z,4.86
2023-03-28T00:05:48.293Z,3.02
2023-03-28T00:08:21.019Z,5.30
2023-03-28T00:10:49.251Z,4.84
2023-03-28T00:13:22.526Z,-1.42
2023-03-28T00:15:53.263Z,4.80
2023-03-28T00:18:23.840Z,4.62
2023-03-28T00:20:54.572Z,4.34
2023-03-28T00:23:27.137Z,4.57
2023-03-28T00:25:55.678Z,-0.23
2023-03-28T00:28:26.158Z,4.98
2023-03-28T00:31:04.729Z,4.71
2023-03-28T00:33:37.535Z,4.30
2023-03-28T00:36:04.415Z,4.00
2023-03-28T00:38:31.416Z,4.16
2023-03-28T00:41:00.331Z,4.45
2023-03-28T00:43:43.785Z,4.28
2023-03-28T00:46:13.808Z,4.70
2023-03-28T00:48:45.731Z,4.79
2023-03-28T00:51:19.073Z,0.24
2023-03-28T00:53:45.418Z,4.63
2023-03-28T00:56:14.187Z,2.40
2023-03-28T00:58:44.182Z,4.30
2023-03-28T01:01:15.414Z,4.76
2023-03-28T01:03:51.670Z,4.17
2023-03-28T01:06:20.846Z,4.47
2023-03-28T01:08:50.393Z,4.29
2023-03-28T01:11:23.117Z,3.56
2023-03-28T01:13:53.133Z,4.48
2023-03-28T01:16:26.262Z,4.43
2023-03-28T01:19:01.411Z,3.95
2023-03-28T01:22:06.663Z,4.54
2023-03-28T01:25:15.361Z,4.85
2023-03-28T01:28:15.629Z,4.69
2023-03-28T01:31:00.698Z,4.27
2023-03-28T01:33:58.028Z,4.10
2023-03-28T01:36:39.832Z,4.52
2023-03-28T01:39:15.003Z,4.70
2023-03-28T01:42:06.741Z,4.15
2023-03-28T01:45:00.725Z,4.44
2023-03-28T01:47:48.717Z,4.32
2023-03-28T01:50:25.900Z,4.44
2023-03-28T01:53:02.741Z,4.06
2023-03-28T01:55:42.089Z,4.47
2023-03-28T01:58:22.761Z,4.26
2023-03-28T02:01:12.888Z,3.98
2023-03-28T02:03:51.698Z,4.50
2023-03-28T02:06:23.217Z,4.42
2023-03-28T02:08:54.642Z,3.22
2023-03-28T02:11:27.958Z,4.17
2023-03-28T02:14:00.848Z,4.33
2023-03-28T02:16:31.010Z,3.68
2023-03-28T02:18:59.862Z,4.35
2023-03-28T02:21:55.826Z,3.87
2023-03-28T02:24:22.098Z,3.93
2023-03-28T02:26:56.289Z,3.71
2023-03-28T02:29:24.020Z,3.89
2023-03-28T02:31:50.653Z,4.10
2023-03-28T02:34:16.847Z,4.47
2023-03-28T02:36:57.475Z,4.07
2023-03-28T02:39:39.700Z,4.08
2023-03-28T02:42:41.352Z,4.07
2023-03-28T02:45:48.645Z,4.32
2023-03-28T02:48:25.494Z,4.22
2023-03-28T02:51:08.138Z,3.64
2023-03-28T02:53:50.435Z,4.75
2023-03-28T02:56:31.219Z,4.60
2023-03-28T02:59:07.967Z,4.82
2023-03-28T03:01:40.190Z,4.59
2023-03-28T03:04:12.884Z,4.58
2023-03-28T03:06:44.812Z,4.03
2023-03-28T03:09:13.076Z,4.17
2023-03-28T03:11:43.505Z,4.08
2023-03-28T03:14:14.687Z,4.71
2023-03-28T03:16:45.380Z,3.68
2023-03-28T03:19:15.998Z,4.30
2023-03-28T03:21:49.222Z,4.85
2023-03-28T03:24:19.343Z,3.90
2023-03-28T03:26:49.660Z,4.08
2023-03-28T03:29:20.523Z,3.93
2023-03-28T03:31:50.941Z,4.34
2023-03-28T03:34:23.550Z,3.95
2023-03-28T03:36:54.926Z,4.41
2023-03-28T03:39:24.584Z,4.55
2023-03-28T03:41:55.924Z,4.12
2023-03-28T03:44:26.433Z,4.68
2023-03-28T03:46:57.224Z,4.64
2023-03-28T03:49:27.288Z,4.72
2023-03-28T03:51:58.009Z,4.67
2023-03-28T03:54:28.585Z,4.25
2023-03-28T03:57:02.211Z,4.43
2023-03-28T03:59:31.500Z,4.92
2023-03-28T04:02:02.691Z,4.11
2023-03-28T04:04:33.418Z,4.62
2023-03-28T04:07:03.882Z,4.26
2023-03-28T04:09:35.275Z,4.88
2023-03-28T04:12:06.722Z,4.76
2023-03-28T04:14:36.030Z,4.95
2023-03-28T04:17:06.763Z,4.90
2023-03-28T04:19:39.955Z,4.74
2023-03-28T04:22:12.038Z,4.62
2023-03-28T04:24:43.893Z,4.90
2023-03-28T04:27:14.998Z,4.60
2023-03-28T04:29:44.945Z,4.65
2023-03-28T04:32:20.595Z,5.02
2023-03-28T04:34:52.960Z,4.57
2023-03-28T04:37:21.854Z,4.97
2023-03-28T04:39:53.399Z,5.12
2023-03-28T04:42:22.301Z,4.62
2023-03-28T04:44:53.365Z,4.82
2023-03-28T04:47:24.735Z,4.98
2023-03-28T04:49:58.259Z,4.61
2023-03-28T04:52:29.206Z,4.51
2023-03-28T04:55:00.220Z,4.23
2023-03-28T04:57:30.974Z,4.84
2023-03-28T05:00:05.288Z,4.68
2023-03-28T05:02:32.620Z,4.75
2023-03-28T05:05:03.529Z,4.88
2023-03-28T05:07:37.329Z,4.83
2023-03-28T05:10:08.412Z,4.46
2023-03-28T05:12:38.898Z,4.38
2023-03-28T05:15:21.077Z,4.76
2023-03-28T05:17:49.632Z,3.39
2023-03-28T05:20:18.026Z,4.68
2023-03-28T05:22:48.080Z,5.12
2023-03-28T05:25:19.195Z,4.92
2023-03-28T05:27:50.822Z,5.15
2023-03-28T05:30:21.777Z,4.41
2023-03-28T05:32:54.204Z,4.06
2023-03-28T05:35:24.861Z,4.19
2023-03-28T05:37:56.012Z,4.30
2023-03-28T05:40:28.846Z,4.54
2023-03-28T05:43:00.222Z,4.83
2023-03-28T05:45:31.113Z,5.13
2023-03-28T05:48:01.486Z,4.87
2023-03-28T05:50:32.072Z,5.15
2023-03-28T05:53:02.731Z,4.92
2023-03-28T05:55:35.539Z,4.83
2023-03-28T05:58:11.849Z,5.00
2023-03-28T06:00:42.058Z,4.52
2023-03-28T06:03:17.223Z,3.88
2023-03-28T06:05:53.338Z,4.24
2023-03-28T06:08:19.675Z,4.55
2023-03-28T06:10:46.121Z,4.87
2023-03-28T06:13:18.806Z,4.02
2023-03-28T06:15:49.131Z,4.73
2023-03-28T06:18:19.245Z,1.30
2023-03-28T06:20:50.550Z,4.84
2023-03-28T06:23:23.486Z,4.72
2023-03-28T06:25:54.054Z,4.94
2023-03-28T06:28:24.242Z,5.06
2023-03-28T06:30:54.881Z,4.78
2023-03-28T06:33:26.615Z,5.31
2023-03-28T06:35:57.467Z,4.82
2023-03-28T06:38:28.287Z,4.77
2023-03-28T06:41:02.067Z,4.64
2023-03-28T06:43:32.830Z,5.14
2023-03-28T06:46:03.858Z,4.84
2023-03-28T06:48:37.186Z,3.96
2023-03-28T06:51:07.537Z,4.51
2023-03-28T06:53:38.476Z,4.80
2023-03-28T06:56:10.173Z,4.62
2023-03-28T06:58:39.268Z,4.57
2023-03-28T07:01:10.132Z,5.13
2023-03-28T07:03:40.761Z,5.32
2023-03-28T07:06:13.097Z,4.73
2023-03-28T07:08:44.384Z,4.40
2023-03-28T07:11:15.314Z,4.26
2023-03-28T07:13:46.272Z,4.92
2023-03-28T07:16:17.871Z,3.70
2023-03-28T07:18:48.116Z,4.99
2023-03-28T07:21:18.904Z,4.97
2023-03-28T07:23:51.184Z,4.69
2023-03-28T07:26:21.939Z,5.46
2023-03-28T07:28:54.575Z,5.59
2023-03-28T07:31:25.087Z,5.80
2023-03-28T07:33:57.402Z,6.51
2023-03-28T07:36:27.859Z,5.80
2023-03-28T07:38:58.195Z,6.30
2023-03-28T07:41:32.949Z,5.96
2023-03-28T07:44:04.750Z,6.58
2023-03-28T07:46:36.888Z,6.33
2023-03-28T07:49:12.418Z,6.51
2023-03-28T07:51:43.109Z,6.93
2023-03-28T07:54:16.912Z,6.45
2023-03-28T07:56:45.372Z,7.36
2023-03-28T07:59:16.469Z,7.22
2023-03-28T08:01:47.489Z,7.16
2023-03-28T08:04:19.110Z,7.40
2023-03-28T08:06:51.611Z,7.80
2023-03-28T08:09:22.109Z,6.56
2023-03-28T08:11:53.307Z,7.59
2023-03-28T08:14:25.738Z,7.65
2023-03-28T08:16:56.643Z,7.05
2023-03-28T08:19:27.810Z,7.40
2023-03-28T08:22:01.765Z,7.73
2023-03-28T08:24:35.824Z,7.31
2023-03-28T08:27:03.361Z,8.40
2023-03-28T08:29:31.673Z,7.78
2023-03-28T08:32:06.635Z,7.36
2023-03-28T08:34:37.279Z,8.80
2023-03-28T08:37:06.792Z,7.41
2023-03-28T08:39:40.383Z,8.92
2023-03-28T08:43:02.912Z,8.27
2023-03-28T08:46:01.030Z,7.41
2023-03-28T08:48:42.725Z,8.46
2023-03-28T08:51:27.623Z,9.85
2023-03-28T08:54:21.240Z,8.23
2023-03-28T08:56:55.458Z,9.09
2023-03-28T08:59:39.804Z,8.25
2023-03-28T09:02:20.619Z,8.38
2023-03-28T09:04:47.333Z,8.19
2023-03-28T09:07:35.358Z,8.12
2023-03-28T09:10:23.316Z,7.83
2023-03-28T09:12:54.189Z,8.63
2023-03-28T09:15:34.394Z,9.45
2023-03-28T09:18:09.784Z,8.23
2023-03-28T09:20:54.660Z,8.02
2023-03-28T09:23:25.322Z,8.02
2023-03-28T09:26:22.840Z,9.76
2023-03-28T09:28:57.070Z,9.57
2023-03-28T09:31:48.982Z,9.02
2023-03-28T09:34:28.129Z,8.84
2023-03-28T09:37:05.387Z,10.13
2023-03-28T09:39:42.275Z,10.23
2023-03-28T09:42:26.636Z,10.17
2023-03-28T09:45:24.126Z,9.09
2023-03-28T09:47:57.456Z,5.05
2023-03-28T09:50:28.828Z,10.19
2023-03-28T09:53:00.335Z,10.68
2023-03-28T09:55:28.734Z,10.54
2023-03-28T09:58:11.629Z,10.29
2023-03-28T10:00:49.246Z,11.31
2023-03-28T10:03:28.416Z,10.28
2023-03-28T10:05:56.454Z,9.93
2023-03-28T10:08:35.337Z,10.04
2023-03-28T10:11:13.545Z,11.03
2023-03-28T10:13:41.992Z,11.15
2023-03-28T10:16:25.719Z,10.69
2023-03-28T10:18:56.648Z,12.07
2023-03-28T10:21:30.780Z,11.67
2023-03-28T10:24:04.341Z,10.47
2023-03-28T10:26:36.015Z,8.17
2023-03-28T10:29:10.317Z,9.23
2023-03-28T10:31:47.849Z,9.65
2023-03-28T10:34:36.929Z,9.56
2023-03-28T10:37:22.749Z,11.09
2023-03-28T10:40:00.443Z,11.27
2023-03-28T10:42:26.834Z,10.70
2023-03-28T10:45:00.562Z,9.24
2023-03-28T10:47:28.996Z,10.00
2023-03-28T10:49:55.681Z,7.71
2023-03-28T10:52:47.300Z,9.48
2023-03-28T10:55:24.440Z,9.68
2023-03-28T10:58:04.078Z,8.93
2023-03-28T11:01:07.883Z,9.45
2023-03-28T11:04:10.856Z,9.18
2023-03-28T11:07:05.393Z,9.24
2023-03-28T11:09:57.968Z,9.39
2023-03-28T11:12:58.984Z,9.74
2023-03-28T11:15:52.862Z,8.93
2023-03-28T11:18:44.844Z,9.06
2023-03-28T11:21:56.029Z,9.13
2023-03-28T11:24:45.903Z,8.94
2023-03-28T11:27:26.018Z,6.11
2023-03-28T11:29:57.850Z,10.93
2023-03-28T11:32:45.909Z,9.87
2023-03-28T11:35:17.342Z,10.50
2023-03-28T11:38:01.977Z,9.94
2023-03-28T11:40:57.171Z,10.19
2023-03-28T11:43:43.895Z,9.79
2023-03-28T11:46:16.129Z,9.70
2023-03-28T11:48:58.463Z,9.79
2023-03-28T11:51:55.613Z,11.02
2023-03-28T11:54:43.385Z,11.22
2023-03-28T11:57:28.562Z,11.20
2023-03-28T12:00:04.740Z,11.36
2023-03-28T12:02:39.532Z,10.94
2023-03-28T12:05:23.683Z,10.96
2023-03-28T12:08:07.576Z,10.80
2023-03-28T12:10:46.044Z,9.56
2023-03-28T12:13:18.015Z,10.35
2023-03-28T12:15:52.829Z,10.84
2023-03-28T12:18:32.954Z,11.24
2023-03-28T12:21:22.426Z,10.91
2023-03-28T12:24:10.640Z,10.31
2023-03-28T12:27:03.582Z,10.28
2023-03-28T12:30:06.293Z,10.49
2023-03-28T12:33:24.887Z,10.07
2023-03-28T12:36:06.975Z,10.37
2023-03-28T12:38:42.013Z,11.23
2023-03-28T12:41:18.981Z,10.69
2023-03-28T12:44:10.679Z,11.04
2023-03-28T12:47:28.530Z,11.09
2023-03-28T12:49:57.491Z,10.31
2023-03-28T12:52:32.248Z,10.91
2023-03-28T12:55:08.146Z,11.31
2023-03-28T12:57:40.665Z,10.44
2023-03-28T13:00:15.702Z,11.73
2023-03-28T13:02:54.139Z,10.24
2023-03-28T13:05:41.158Z,11.53
2023-03-28T13:08:45.748Z,11.30
2023-03-28T13:11:23.220Z,10.84
2023-03-28T13:14:03.831Z,10.97
2023-03-28T13:17:22.678Z,10.41
2023-03-28T13:20:12.573Z,10.74
2023-03-28T13:23:11.830Z,10.07
2023-03-28T13:25:38.302Z,10.12
2023-03-28T13:28:12.018Z,9.73
2023-03-28T13:30:46.830Z,10.24
2023-03-28T13:33:26.785Z,9.39
2023-03-28T13:35:57.996Z,10.41
2023-03-28T13:38:27.065Z,10.67
2023-03-28T13:41:00.120Z,10.42
2023-03-28T13:43:50.944Z,9.39
2023-03-28T13:46:44.892Z,9.60
2023-03-28T13:49:21.008Z,10.25
2023-03-28T13:52:03.926Z,10.31
2023-03-28T13:54:34.017Z,9.90
2023-03-28T13:57:07.609Z,9.92
2023-03-28T13:59:48.481Z,10.18
2023-03-28T14:02:18.754Z,10.77
2023-03-28T14:04:56.425Z,10.66
2023-03-28T14:07:25.390Z,10.87
2023-03-28T14:09:52.939Z,10.24
2023-03-28T14:12:19.665Z,10.63
2023-03-28T14:14:54.523Z,10.15
2023-03-28T14:17:30.888Z,10.22
2023-03-28T14:19:58.111Z,9.98
2023-03-28T14:22:32.988Z,9.99
2023-03-28T14:25:07.008Z,10.19
2023-03-28T14:27:39.063Z,10.19
2023-03-28T14:30:21.833Z,10.84
2023-03-28T14:33:06.628Z,10.26
2023-03-28T14:35:47.276Z,10.60
2023-03-28T14:38:27.972Z,10.28
2023-03-28T14:41:07.901Z,10.24
2023-03-28T14:43:39.074Z,10.37
2023-03-28T14:46:08.575Z,10.04
2023-03-28T14:48:41.126Z,9.07
2023-03-28T14:51:13.119Z,9.63
2023-03-28T14:53:41.795Z,10.12
2023-03-28T14:56:19.044Z,10.17
2023-03-28T14:58:51.730Z,10.00
2023-03-28T15:01:23.805Z,10.47
2023-03-28T15:04:01.152Z,9.72
2023-03-28T15:06:36.481Z,9.60
2023-03-28T15:09:10.615Z,9.76
2023-03-28T15:11:43.465Z,9.80
2023-03-28T15:14:21.466Z,10.12
2023-03-28T15:16:47.983Z,9.49
2023-03-28T15:19:26.409Z,9.64
2023-03-28T15:22:00.911Z,9.70
2023-03-28T15:24:29.018Z,10.01
2023-03-28T15:27:04.302Z,9.81
2023-03-28T15:29:40.129Z,9.70
2023-03-28T15:32:20.481Z,9.81
2023-03-28T15:35:00.648Z,9.61
2023-03-28T15:37:42.711Z,9.70
2023-03-28T15:40:18.035Z,9.57
2023-03-28T15:42:49.659Z,9.42
2023-03-28T15:45:33.027Z,8.09
2023-03-28T15:48:17.952Z,9.49
2023-03-28T15:50:55.674Z,9.38
2023-03-28T15:53:28.772Z,8.30
2023-03-28T15:56:11.941Z,9.40
2023-03-28T15:58:44.791Z,9.09
2023-03-28T16:01:28.343Z,9.25
2023-03-28T16:04:15.226Z,9.18
2023-03-28T16:06:52.124Z,9.45
2023-03-28T16:09:26.376Z,9.56
2023-03-28T16:12:03.113Z,9.46
2023-03-28T16:14:39.194Z,8.80
2023-03-28T16:17:06.835Z,9.21
2023-03-28T16:19:36.010Z,9.44
2023-03-28T16:22:05.334Z,9.21
2023-03-28T16:24:37.533Z,9.34
2023-03-28T16:27:03.805Z,9.21
2023-03-28T16:29:30.479Z,8.84
2023-03-28T16:31:57.181Z,8.83
2023-03-28T16:34:28.487Z,8.89
2023-03-28T16:36:57.077Z,8.81
2023-03-28T16:39:23.834Z,7.07
2023-03-28T16:41:51.237Z,9.02
2023-03-28T16:44:22.176Z,8.84
2023-03-28T16:46:50.706Z,8.68
2023-03-28T16:49:21.668Z,8.66
2023-03-28T16:51:57.353Z,8.23
2023-03-28T16:54:25.014Z,8.43
2023-03-28T16:56:56.581Z,8.71
2023-03-28T16:59:26.540Z,8.48
2023-03-28T17:01:58.348Z,8.42
2023-03-28T17:04:29.948Z,8.52
2023-03-28T17:06:58.878Z,8.94
2023-03-28T17:09:36.774Z,8.16
2023-03-28T17:12:07.490Z,7.75
2023-03-28T17:14:38.619Z,8.90
2023-03-28T17:17:09.257Z,8.61
2023-03-28T17:19:38.755Z,8.38
2023-03-28T17:22:10.734Z,8.15
2023-03-28T17:24:40.424Z,8.62
2023-03-28T17:27:14.344Z,8.59
2023-03-28T17:29:41.132Z,7.91
2023-03-28T17:32:11.350Z,8.51
2023-03-28T17:34:41.394Z,8.57
2023-03-28T17:37:12.909Z,8.60
2023-03-28T17:39:45.827Z,8.67
2023-03-28T17:42:12.047Z,8.71
2023-03-28T17:44:47.851Z,8.32
2023-03-28T17:47:20.346Z,8.40
2023-03-28T17:49:46.672Z,8.42
2023-03-28T17:52:17.249Z,8.09
2023-03-28T17:54:48.844Z,8.43
2023-03-28T17:57:16.919Z,8.51
2023-03-28T17:59:47.666Z,8.72
2023-03-28T18:02:14.052Z,8.25
2023-03-28T18:04:41.035Z,8.21
2023-03-28T18:07:16.142Z,3.55
2023-03-28T18:09:43.846Z,8.19
2023-03-28T18:12:10.948Z,8.61
2023-03-28T18:14:37.606Z,8.89
2023-03-28T18:17:04.618Z,8.92
2023-03-28T18:19:31.207Z,8.86
2023-03-28T18:21:57.509Z,8.82
2023-03-28T18:24:23.592Z,8.79
2023-03-28T18:26:52.186Z,8.39
2023-03-28T18:29:18.369Z,8.69
2023-03-28T18:31:44.734Z,8.78
2023-03-28T18:34:11.707Z,8.55
2023-03-28T18:36:40.134Z,8.59
2023-03-28T18:39:07.792Z,8.03
2023-03-28T18:41:33.849Z,8.76
2023-03-28T18:44:00.634Z,8.68
2023-03-28T18:46:29.279Z,7.51
2023-03-28T18:49:01.026Z,8.98
2023-03-28T18:51:28.033Z,8.43
2023-03-28T18:53:54.804Z,8.22
2023-03-28T18:56:24.517Z,8.58
2023-03-28T18:58:51.155Z,7.13
2023-03-28T19:01:20.049Z,8.76
2023-03-28T19:03:46.542Z,8.87
2023-03-28T19:06:17.192Z,8.76
2023-03-28T19:08:44.381Z,8.86
2023-03-28T19:11:12.840Z,8.87
2023-03-28T19:13:40.984Z,8.57
2023-03-28T19:16:15.472Z,8.21
2023-03-28T19:18:43.398Z,7.92
2023-03-28T19:21:10.897Z,6.47
2023-03-28T19:23:37.622Z,7.73
2023-03-28T19:26:08.267Z,8.24
2023-03-28T19:28:34.978Z,7.69
2023-03-28T19:31:03.272Z,8.28
2023-03-28T19:33:29.649Z,8.08
2023-03-28T19:35:55.930Z,8.23
2023-03-28T19:38:23.449Z,8.08
2023-03-28T19:40:55.676Z,7.83
2023-03-28T19:43:26.241Z,8.02
2023-03-28T19:45:52.640Z,7.82
2023-03-28T19:48:19.564Z,8.01
2023-03-28T19:50:48.282Z,7.76
2023-03-28T19:53:14.343Z,7.98
2023-03-28T19:55:41.706Z,7.82
2023-03-28T19:58:10.699Z,8.17
2023-03-28T20:00:37.946Z,8.32
2023-03-28T20:03:05.528Z,7.97
2023-03-28T20:05:31.977Z,8.04
2023-03-28T20:07:58.640Z,7.88
2023-03-28T20:10:25.975Z,8.05
2023-03-28T20:12:52.064Z,8.17
2023-03-28T20:15:18.197Z,8.15
2023-03-28T20:17:47.886Z,8.15
2023-03-28T20:20:14.642Z,7.99
2023-03-28T20:22:40.704Z,8.19
2023-03-28T20:25:07.319Z,8.02
2023-03-28T20:27:35.399Z,8.14
2023-03-28T20:30:01.593Z,8.24
2023-03-28T20:32:28.713Z,8.20
2023-03-28T20:34:55.836Z,8.26
2023-03-28T20:37:24.473Z,8.19
2023-03-28T20:39:51.290Z,8.22
2023-03-28T20:42:19.150Z,8.03
2023-03-28T20:44:47.009Z,8.17
2023-03-28T20:47:19.694Z,8.31
2023-03-28T20:49:47.197Z,8.16
2023-03-28T20:52:16.280Z,8.25
2023-03-28T20:54:42.349Z,8.12
2023-03-28T20:57:09.103Z,8.22
2023-03-28T20:59:35.231Z,8.34
2023-03-28T21:02:01.440Z,8.21
2023-03-28T21:04:27.781Z,8.32
2023-03-28T21:06:57.227Z,8.22
2023-03-28T21:09:23.316Z,7.93
2023-03-28T21:11:49.617Z,8.27
2023-03-28T21:14:17.145Z,8.20
2023-03-28T21:16:43.268Z,8.34
2023-03-28T21:19:09.421Z,8.33
2023-03-28T21:21:35.896Z,8.52
2023-03-28T21:24:04.245Z,8.44
2023-03-28T21:26:33.444Z,8.49
2023-03-28T21:29:00.091Z,8.03
2023-03-28T21:31:29.472Z,8.44
2023-03-28T21:34:01.061Z,8.40
2023-03-28T21:36:28.085Z,8.14
2023-03-28T21:38:55.349Z,7.84
2023-03-28T21:41:23.246Z,8.29
2023-03-28T21:43:49.763Z,8.26
2023-03-28T21:46:18.097Z,8.21
2023-03-28T21:48:47.043Z,7.90
2023-03-28T21:51:15.203Z,7.99
2023-03-28T21:53:43.166Z,7.88
2023-03-28T21:56:11.984Z,7.73
2023-03-28T21:58:39.630Z,7.87
2023-03-28T22:01:06.198Z,7.62
2023-03-28T22:03:35.241Z,7.67
2023-03-28T22:06:01.339Z,7.59
2023-03-28T22:08:28.939Z,7.57
2023-03-28T22:10:58.166Z,7.67
2023-03-28T22:13:24.407Z,6.96
2023-03-28T22:15:51.931Z,7.33
2023-03-28T22:18:19.316Z,6.00
2023-03-28T22:20:52.202Z,7.46
2023-03-28T22:23:20.255Z,7.41
2023-03-28T22:25:46.341Z,7.39
2023-03-28T22:28:13.216Z,7.18
2023-03-28T22:30:40.420Z,6.06
2023-03-28T22:33:10.012Z,7.42
2023-03-28T22:35:36.735Z,7.38
2023-03-28T22:38:03.428Z,7.33
2023-03-28T22:40:29.764Z,7.43
2023-03-28T22:42:56.736Z,7.52
2023-03-28T22:45:25.675Z,7.46
2023-03-28T22:47:53.035Z,7.24
2023-03-28T22:50:19.321Z,7.35
2023-03-28T22:52:49.671Z,7.39
2023-03-28T22:55:17.066Z,7.32
2023-03-28T22:57:43.990Z,7.38
2023-03-28T23:00:12.737Z,7.29
2023-03-28T23:02:40.777Z,7.32
2023-03-28T23:05:09.769Z,7.55
2023-03-28T23:07:37.496Z,7.34
2023-03-28T23:10:07.635Z,7.10
2023-03-28T23:12:35.443Z,7.06
2023-03-28T23:15:02.439Z,7.04
2023-03-28T23:17:30.789Z,6.73
2023-03-28T23:19:57.932Z,6.86
2023-03-28T23:22:24.030Z,6.58
2023-03-28T23:24:50.485Z,6.40
2023-03-28T23:27:18.043Z,6.56
2023-03-28T23:29:44.892Z,6.05
2023-03-28T23:32:11.448Z,6.15
2023-03-28T23:34:39.783Z,6.14
2023-03-28T23:37:06.640Z,5.97
2023-03-28T23:39:33.823Z,5.87
2023-03-28T23:42:01.138Z,6.19
2023-03-28T23:44:27.269Z,6.06
2023-03-28T23:46:53.428Z,6.11
2023-03-28T23:49:19.660Z,6.40
2023-03-28T23:51:46.819Z,6.53
2023-03-28T23:54:15.341Z,6.49
2023-03-28T23:56:41.573Z,6.22
2023-03-28T23:59:07.721Z,6.27
